Time;durP1;ratioP1;P1;durP2;ratioP2;P2;SDS_P1;SDS_P2;PMS_P1;PMS_P2;Temp;Humidity;BMP_temperature;BMP_pressure;BME280_temperature;BME280_humidity;BME280_pressure;Samples;Min_cycle;Max_cycle;Signal;HPM_P1;HPM_P2
2023/05/06 00:01:20;;;;;;;4.77;2.03;;;;;;;;;;5015870;28;20426;-80
2023/05/06 00:03:46;;;;;;;5.03;2.27;;;;;;;;;;5033248;28;20415;-80
2023/05/06 00:06:12;;;;;;;9.23;3.13;;;;;;;;;;5015899;28;20767;-82
2023/05/06 00:08:38;;;;;;;3.37;2.17;;;;;;;;;;5033088;28;20406;-81
2023/05/06 00:11:04;;;;;;;6.23;2.40;;;;;;;;;;5033297;28;20458;-83
2023/05/06 00:13:29;;;;;;;5.47;1.57;;;;;;;;;;5033239;28;20471;-83
2023/05/06 00:15:55;;;;;;;4.43;2.13;;;;;;;;;;5033309;28;20406;-82
2023/05/06 00:18:22;;;;;;;5.10;1.90;;;;;;;;;;5033180;28;20418;-83
2023/05/06 00:20:48;;;;;;;4.20;1.60;;;;;;;;;;5033420;28;20958;-84
2023/05/06 00:23:14;;;;;;;3.90;1.70;;;;;;;;;;5032819;28;20413;-80
2023/05/06 00:25:40;;;;;;;3.30;1.67;;;;;;;;;;5023646;28;20512;-83
2023/05/06 00:28:06;;;;;;;4.60;1.83;;;;;;;;;;5012513;28;20466;-81
2023/05/06 00:30:32;;;;;;;8.37;2.20;;;;;;;;;;5012741;28;20511;-83
2023/05/06 00:32:58;;;;;;;5.00;2.63;;;;;;;;;;5061872;22;21051;-80
2023/05/06 00:35:24;;;;;;;5.10;2.47;;;;;;;;;;5031965;28;20415;-82
2023/05/06 00:37:57;;;;;;;7.23;3.70;;;;;;;;;;5036930;28;20479;-82
2023/05/06 00:40:23;;;;;;;9.53;2.67;;;;;;;;;;5032465;28;20408;-83
2023/05/06 00:42:49;;;;;;;6.97;2.17;;;;;;;;;;5046648;28;20508;-83
2023/05/06 00:45:15;;;;;;;8.30;2.80;;;;;;;;;;5031903;28;20416;-84
2023/05/06 00:47:42;;;;;;;5.73;2.20;;;;;;;;;;5032130;28;20422;-82
2023/05/06 00:50:08;;;;;;;7.77;1.90;;;;;;;;;;5038702;28;20480;-82
2023/05/06 00:52:34;;;;;;;3.83;1.80;;;;;;;;;;5014079;28;20761;-82
2023/05/06 00:55:00;;;;;;;3.70;1.37;;;;;;;;;;5032415;28;20923;-80
2023/05/06 00:57:26;;;;;;;3.20;1.43;;;;;;;;;;5031997;28;20517;-79
2023/05/06 00:59:52;;;;;;;7.20;2.60;;;;;;;;;;5032435;28;20407;-81
2023/05/06 01:02:18;;;;;;;8.03;2.80;;;;;;;;;;5024231;28;21265;-80
2023/05/06 01:04:44;;;;;;;6.40;2.00;;;;;;;;;;5012993;28;20418;-81
2023/05/06 01:07:16;;;;;;;7.77;2.50;;;;;;;;;;5013036;28;20418;-82
2023/05/06 01:09:46;;;;;;;5.27;1.87;;;;;;;;;;5012588;28;20423;-79
2023/05/06 01:12:31;;;;;;;4.40;1.90;;;;;;;;;;5012853;28;20604;-80
2023/05/06 01:15:09;;;;;;;7.37;2.13;;;;;;;;;;5012845;28;20837;-80
2023/05/06 01:17:38;;;;;;;5.10;2.00;;;;;;;;;;4994880;28;20473;-80
2023/05/06 01:20:05;;;;;;;6.30;2.40;;;;;;;;;;4995181;28;20446;-81
2023/05/06 01:22:32;;;;;;;2.83;2.17;;;;;;;;;;5012450;28;20472;-81
2023/05/06 01:24:58;;;;;;;4.40;2.20;;;;;;;;;;4995269;28;20406;-80
2023/05/06 01:27:24;;;;;;;4.77;2.90;;;;;;;;;;5012775;28;20905;-82
2023/05/06 01:29:50;;;;;;;7.97;3.03;;;;;;;;;;5012177;28;20916;-81
2023/05/06 01:32:21;;;;;;;5.67;2.63;;;;;;;;;;5012509;28;20532;-83
2023/05/06 01:34:50;;;;;;;7.20;2.77;;;;;;;;;;5012771;28;20792;-83
2023/05/06 01:37:16;;;;;;;3.70;2.27;;;;;;;;;;5012284;28;20782;-82
2023/05/06 01:39:43;;;;;;;3.53;1.93;;;;;;;;;;5012580;28;20432;-83
2023/05/06 01:42:09;;;;;;;5.23;2.73;;;;;;;;;;5012504;28;20956;-82
2023/05/06 01:44:36;;;;;;;5.93;2.63;;;;;;;;;;5012109;28;20403;-83
2023/05/06 01:47:02;;;;;;;6.67;2.73;;;;;;;;;;5012526;28;20504;-79
2023/05/06 01:49:29;;;;;;;6.97;3.47;;;;;;;;;;5012504;28;20417;-79
2023/05/06 01:51:55;;;;;;;7.27;2.70;;;;;;;;;;5026447;28;20476;-84
2023/05/06 01:54:21;;;;;;;5.20;2.30;;;;;;;;;;5032010;28;20501;-83
2023/05/06 01:56:47;;;;;;;5.67;2.60;;;;;;;;;;5032236;28;20418;-83
2023/05/06 01:59:13;;;;;;;6.83;3.90;;;;;;;;;;5031719;28;20428;-80
2023/05/06 02:01:39;;;;;;;5.93;2.50;;;;;;;;;;5034000;28;20464;-79
2023/05/06 02:04:05;;;;;;;4.17;2.23;;;;;;;;;;5033492;28;20436;-79
2023/05/06 02:06:31;;;;;;;4.37;2.80;;;;;;;;;;5035642;28;20422;-79
2023/05/06 02:08:56;;;;;;;4.23;3.10;;;;;;;;;;5033668;28;20412;-82
2023/05/06 02:11:22;;;;;;;6.33;4.33;;;;;;;;;;5034460;28;20830;-80
2023/05/06 02:13:48;;;;;;;9.87;3.87;;;;;;;;;;5035519;28;20235;-83
2023/05/06 02:16:14;;;;;;;4.63;2.90;;;;;;;;;;5035692;28;20425;-80
2023/05/06 02:18:40;;;;;;;7.10;3.80;;;;;;;;;;5035155;28;20426;-83
2023/05/06 02:21:06;;;;;;;8.20;3.40;;;;;;;;;;5035548;28;20179;-79
2023/05/06 02:23:32;;;;;;;5.97;3.40;;;;;;;;;;5035087;28;20411;-83
2023/05/06 02:25:58;;;;;;;9.57;4.37;;;;;;;;;;5035333;28;20913;-79
2023/05/06 02:28:24;;;;;;;8.10;3.23;;;;;;;;;;5035454;28;20409;-84
2023/05/06 02:30:54;;;;;;;6.80;3.90;;;;;;;;;;5035162;28;20632;-79
2023/05/06 02:33:20;;;;;;;4.30;2.40;;;;;;;;;;5035151;28;20499;-84
2023/05/06 02:35:46;;;;;;;5.90;3.83;;;;;;;;;;5035201;28;20415;-80
2023/05/06 02:38:12;;;;;;;5.10;2.93;;;;;;;;;;5034903;28;20425;-80
2023/05/06 02:40:38;;;;;;;4.43;2.40;;;;;;;;;;5035207;28;20465;-82
2023/05/06 02:43:04;;;;;;;8.17;3.30;;;;;;;;;;5035063;28;20498;-82
2023/05/06 02:45:30;;;;;;;2.93;2.67;;;;;;;;;;5034979;28;20424;-83
2023/05/06 02:47:56;;;;;;;6.00;3.77;;;;;;;;;;5035069;28;20490;-80
2023/05/06 02:50:22;;;;;;;3.90;3.30;;;;;;;;;;5034923;28;20543;-80
2023/05/06 02:52:48;;;;;;;4.00;3.17;;;;;;;;;;5034522;28;20418;-80
2023/05/06 02:55:14;;;;;;;5.33;2.83;;;;;;;;;;5034903;28;20402;-80
2023/05/06 02:57:39;;;;;;;5.50;3.27;;;;;;;;;;5034866;28;20910;-82
2023/05/06 03:00:06;;;;;;;4.73;3.73;;;;;;;;;;5034817;28;20537;-80
2023/05/06 03:02:32;;;;;;;7.93;3.90;;;;;;;;;;5016954;28;20193;-83
2023/05/06 03:04:58;;;;;;;5.33;3.50;;;;;;;;;;5034721;28;20778;-80
2023/05/06 03:07:24;;;;;;;6.50;2.57;;;;;;;;;;5034383;28;20450;-80
2023/05/06 03:09:50;;;;;;;3.17;2.00;;;;;;;;;;5034587;28;20182;-83
2023/05/06 03:12:16;;;;;;;4.50;3.00;;;;;;;;;;5034408;28;20471;-84
2023/05/06 03:14:41;;;;;;;4.50;2.83;;;;;;;;;;5034468;28;20408;-80
2023/05/06 03:17:07;;;;;;;6.47;3.20;;;;;;;;;;5034457;28;20420;-80
2023/05/06 03:19:33;;;;;;;5.07;2.93;;;;;;;;;;5034399;28;20428;-82
2023/05/06 03:21:59;;;;;;;5.00;3.80;;;;;;;;;;5034020;28;20417;-81
2023/05/06 03:24:25;;;;;;;7.00;3.60;;;;;;;;;;5034340;28;20416;-85
2023/05/06 03:26:51;;;;;;;4.87;2.90;;;;;;;;;;5034175;28;20466;-79
2023/05/06 03:29:17;;;;;;;6.40;3.23;;;;;;;;;;5034176;28;20621;-80
2023/05/06 03:31:43;;;;;;;5.37;2.67;;;;;;;;;;5034118;28;20476;-79
2023/05/06 03:34:09;;;;;;;8.90;2.70;;;;;;;;;;5034026;28;20473;-80
2023/05/06 03:36:35;;;;;;;2.87;1.67;;;;;;;;;;5034131;28;20419;-80
2023/05/06 03:39:01;;;;;;;1.70;0.67;;;;;;;;;;5033681;28;20421;-81
2023/05/06 03:41:26;;;;;;;4.50;2.57;;;;;;;;;;5033945;28;20444;-81
2023/05/06 03:43:54;;;;;;;2.83;1.53;;;;;;;;;;5034004;28;20761;-81
2023/05/06 03:46:20;;;;;;;1.73;0.80;;;;;;;;;;5033943;28;20844;-83
2023/05/06 03:48:46;;;;;;;1.93;1.20;;;;;;;;;;5033926;28;20409;-80
2023/05/06 03:51:12;;;;;;;2.20;1.30;;;;;;;;;;5033782;28;20336;-81
2023/05/06 03:53:38;;;;;;;3.10;1.63;;;;;;;;;;5033439;28;20198;-81
2023/05/06 03:56:04;;;;;;;2.73;0.77;;;;;;;;;;5033703;28;20421;-80
2023/05/06 03:58:30;;;;;;;2.67;0.60;;;;;;;;;;5033617;28;20470;-81
2023/05/06 04:00:56;;;;;;;2.90;1.40;;;;;;;;;;5033660;28;20413;-81
2023/05/06 04:03:21;;;;;;;2.87;1.50;;;;;;;;;;5033612;28;20420;-80
2023/05/06 04:05:49;;;;;;;2.23;1.20;;;;;;;;;;5033516;28;20416;-81
2023/05/06 04:08:16;;;;;;;4.60;2.10;;;;;;;;;;5015498;28;20428;-83
2023/05/06 04:10:42;;;;;;;2.77;1.27;;;;;;;;;;5015658;28;20467;-83
2023/05/06 04:13:07;;;;;;;2.50;1.47;;;;;;;;;;5033436;28;20406;-84
2023/05/06 04:15:35;;;;;;;3.23;1.43;;;;;;;;;;5033381;28;20403;-83
2023/05/06 04:18:01;;;;;;;3.57;1.40;;;;;;;;;;5033416;28;20732;-83
2023/05/06 04:20:27;;;;;;;2.77;1.20;;;;;;;;;;5033341;28;20418;-84
2023/05/06 04:22:53;;;;;;;2.30;1.57;;;;;;;;;;5032474;28;20429;-84
2023/05/06 04:25:20;;;;;;;2.63;1.93;;;;;;;;;;5033153;28;20514;-83
2023/05/06 04:27:46;;;;;;;1.93;1.50;;;;;;;;;;5033093;28;20494;-84
2023/05/06 04:30:12;;;;;;;2.20;1.53;;;;;;;;;;5015374;28;20427;-84
2023/05/06 04:32:39;;;;;;;2.20;1.53;;;;;;;;;;5032981;28;20536;-83
2023/05/06 04:35:05;;;;;;;4.63;1.87;;;;;;;;;;5033123;28;20432;-83
2023/05/06 04:37:31;;;;;;;3.27;2.20;;;;;;;;;;5032723;28;20426;-85
2023/05/06 04:39:57;;;;;;;4.00;2.10;;;;;;;;;;5032929;28;20468;-85
2023/05/06 04:42:23;;;;;;;5.20;1.30;;;;;;;;;;5033033;28;20891;-85
2023/05/06 04:44:49;;;;;;;3.17;1.83;;;;;;;;;;5033004;28;20420;-84
2023/05/06 04:47:15;;;;;;;4.30;2.23;;;;;;;;;;5032961;28;20482;-83
2023/05/06 04:49:41;;;;;;;2.57;1.67;;;;;;;;;;5032985;28;20412;-82
2023/05/06 04:52:07;;;;;;;2.53;1.17;;;;;;;;;;5032456;28;20473;-83
2023/05/06 04:54:33;;;;;;;2.67;1.00;;;;;;;;;;5032896;28;20399;-85
2023/05/06 04:56:59;;;;;;;6.30;1.90;;;;;;;;;;5032909;28;20922;-83
2023/05/06 04:59:25;;;;;;;2.40;1.37;;;;;;;;;;5032824;28;20413;-83
2023/05/06 05:01:51;;;;;;;3.17;1.73;;;;;;;;;;5032877;28;20409;-83
2023/05/06 05:04:17;;;;;;;3.67;1.33;;;;;;;;;;5032848;28;20767;-83
2023/05/06 05:06:44;;;;;;;3.50;1.30;;;;;;;;;;5032357;28;20449;-83
2023/05/06 05:09:10;;;;;;;5.00;1.50;;;;;;;;;;5032894;28;20408;-82
2023/05/06 05:11:37;;;;;;;2.33;1.10;;;;;;;;;;5015172;28;20910;-83
2023/05/06 05:14:03;;;;;;;3.27;2.00;;;;;;;;;;5032704;28;20455;-83
2023/05/06 05:16:29;;;;;;;3.13;1.70;;;;;;;;;;5032799;28;20452;-84
2023/05/06 05:18:55;;;;;;;3.10;1.83;;;;;;;;;;5032541;28;20899;-82
2023/05/06 05:21:21;;;;;;;3.00;1.67;;;;;;;;;;5032613;28;20515;-83
2023/05/06 05:23:47;;;;;;;2.70;2.33;;;;;;;;;;5032320;28;20869;-83
2023/05/06 05:26:13;;;;;;;4.80;1.90;;;;;;;;;;5032583;28;20495;-83
2023/05/06 05:28:38;;;;;;;2.70;1.30;;;;;;;;;;5014762;28;20464;-83
2023/05/06 05:31:05;;;;;;;4.32;1.95;;;;;;;;;;5014099;28;20441;-82
2023/05/06 05:33:30;;;;;;;4.03;2.10;;;;;;;;;;5014630;28;20222;-83
2023/05/06 05:35:59;;;;;;;4.78;2.83;;;;;;;;;;5015618;28;20818;-82
2023/05/06 05:38:25;;;;;;;3.40;1.57;;;;;;;;;;5036025;28;20171;-84
2023/05/06 05:40:51;;;;;;;1.70;1.60;;;;;;;;;;5018537;28;20424;-85
2023/05/06 05:43:20;;;;;;;2.53;1.13;;;;;;;;;;5036322;28;20426;-82
2023/05/06 05:45:46;;;;;;;4.00;2.27;;;;;;;;;;5036246;28;20434;-83
2023/05/06 05:48:11;;;;;;;2.00;1.53;;;;;;;;;;5036320;28;20412;-84
2023/05/06 05:50:37;;;;;;;4.60;2.50;;;;;;;;;;5036003;28;20981;-84
2023/05/06 05:53:04;;;;;;;5.47;2.50;;;;;;;;;;5035822;28;20772;-84
2023/05/06 05:55:30;;;;;;;3.60;2.10;;;;;;;;;;5036070;28;20514;-84
2023/05/06 05:57:56;;;;;;;2.67;1.53;;;;;;;;;;5036091;28;20487;-84
2023/05/06 06:00:22;;;;;;;3.03;1.03;;;;;;;;;;5036021;28;20444;-81
2023/05/06 06:02:48;;;;;;;2.50;1.70;;;;;;;;;;5035743;28;20848;-81
2023/05/06 06:05:14;;;;;;;2.83;2.10;;;;;;;;;;5035928;28;20420;-84
2023/05/06 06:07:40;;;;;;;2.40;1.60;;;;;;;;;;5017801;28;20903;-85
2023/05/06 06:10:06;;;;;;;3.43;1.10;;;;;;;;;;5035674;28;20426;-84
2023/05/06 06:12:32;;;;;;;2.43;1.53;;;;;;;;;;5035855;28;20445;-85
2023/05/06 06:14:58;;;;;;;2.97;1.90;;;;;;;;;;5017985;28;20771;-85
2023/05/06 06:17:24;;;;;;;5.13;2.03;;;;;;;;;;5035663;28;20435;-85
2023/05/06 06:19:50;;;;;;;2.60;2.40;;;;;;;;;;5035466;28;20402;-85
2023/05/06 06:22:16;;;;;;;2.60;1.80;;;;;;;;;;5035184;28;20407;-85
2023/05/06 06:24:42;;;;;;;5.20;2.60;;;;;;;;;;5035512;28;20758;-84
2023/05/06 06:27:08;;;;;;;3.73;1.13;;;;;;;;;;5035144;28;20420;-82
2023/05/06 06:29:34;;;;;;;4.20;2.80;;;;;;;;;;5026215;28;20516;-84
2023/05/06 06:32:01;;;;;;;5.60;3.10;;;;;;;;;;5017410;28;20263;-82
2023/05/06 06:34:27;;;;;;;4.60;2.10;;;;;;;;;;5016470;28;20430;-85
2023/05/06 06:36:53;;;;;;;6.43;2.77;;;;;;;;;;4998051;28;20640;-82
2023/05/06 06:39:19;;;;;;;4.27;2.13;;;;;;;;;;5015813;28;20434;-83
2023/05/06 06:41:45;;;;;;;3.37;1.70;;;;;;;;;;5015409;28;20451;-84
2023/05/06 06:44:11;;;;;;;4.10;2.67;;;;;;;;;;5015236;28;20407;-83
2023/05/06 06:46:37;;;;;;;3.90;2.13;;;;;;;;;;5014921;28;20527;-85
2023/05/06 06:49:03;;;;;;;2.83;1.83;;;;;;;;;;5015153;28;20673;-84
2023/05/06 06:51:30;;;;;;;4.53;2.47;;;;;;;;;;5018809;28;20504;-84
2023/05/06 06:53:56;;;;;;;4.93;2.53;;;;;;;;;;5034833;28;20415;-82
2023/05/06 06:56:22;;;;;;;3.17;1.70;;;;;;;;;;5034604;28;20771;-84
2023/05/06 06:58:48;;;;;;;3.23;1.97;;;;;;;;;;5034860;28;20411;-83
2023/05/06 07:01:14;;;;;;;4.00;2.57;;;;;;;;;;5034853;28;20440;-83
2023/05/06 07:03:40;;;;;;;2.73;1.83;;;;;;;;;;5034704;28;20416;-83
2023/05/06 07:06:06;;;;;;;3.07;2.03;;;;;;;;;;5034770;28;20416;-83
2023/05/06 07:08:32;;;;;;;2.67;1.33;;;;;;;;;;5034328;28;21005;-83
2023/05/06 07:10:58;;;;;;;3.23;2.33;;;;;;;;;;5034491;28;20885;-83
2023/05/06 07:13:24;;;;;;;3.20;2.23;;;;;;;;;;5034545;28;20892;-83
2023/05/06 07:15:49;;;;;;;3.67;2.23;;;;;;;;;;5034374;28;20498;-85
2023/05/06 07:18:15;;;;;;;4.33;2.13;;;;;;;;;;5034514;28;20478;-82
2023/05/06 07:20:41;;;;;;;2.37;2.00;;;;;;;;;;5034499;28;20451;-83
2023/05/06 07:23:07;;;;;;;5.03;1.70;;;;;;;;;;5033867;28;20410;-85
2023/05/06 07:25:34;;;;;;;5.37;2.13;;;;;;;;;;5033875;28;20491;-82
2023/05/06 07:28:00;;;;;;;5.27;2.53;;;;;;;;;;5034280;28;20411;-83
2023/05/06 07:30:26;;;;;;;4.50;2.73;;;;;;;;;;5032996;28;20458;-81
2023/05/06 07:32:52;;;;;;;3.30;1.93;;;;;;;;;;5033171;28;20481;-86
2023/05/06 07:35:18;;;;;;;2.90;1.80;;;;;;;;;;5034160;28;20806;-84
2023/05/06 07:37:45;;;;;;;2.43;2.20;;;;;;;;;;5033799;28;20469;-82
2023/05/06 07:40:11;;;;;;;4.20;2.03;;;;;;;;;;5033584;28;20457;-82
2023/05/06 07:42:37;;;;;;;2.83;1.43;;;;;;;;;;5032692;28;20931;-83
2023/05/06 07:45:04;;;;;;;3.07;2.03;;;;;;;;;;5032629;28;20418;-82
2023/05/06 07:47:33;;;;;;;3.60;1.83;;;;;;;;;;5032678;28;20423;-83
2023/05/06 07:49:59;;;;;;;4.40;2.30;;;;;;;;;;5032792;28;20476;-83
2023/05/06 07:52:25;;;;;;;4.07;2.97;;;;;;;;;;5031945;28;20500;-82
2023/05/06 07:54:52;;;;;;;5.50;3.43;;;;;;;;;;5031986;28;20500;-83
2023/05/06 07:57:18;;;;;;;6.23;2.43;;;;;;;;;;5033494;28;20492;-83
2023/05/06 07:59:46;;;;;;;3.53;2.33;;;;;;;;;;5033018;28;20411;-83
2023/05/06 08:02:12;;;;;;;2.50;1.70;;;;;;;;;;5033589;28;20430;-82
2023/05/06 08:04:38;;;;;;;2.47;1.20;;;;;;;;;;5032334;28;20442;-83
2023/05/06 08:07:04;;;;;;;4.37;2.40;;;;;;;;;;5031902;28;20419;-83
2023/05/06 08:09:30;;;;;;;5.60;2.50;;;;;;;;;;5032987;28;20182;-82
2023/05/06 08:11:57;;;;;;;4.00;2.00;;;;;;;;;;5033310;28;20471;-83
2023/05/06 08:14:24;;;;;;;3.20;2.40;;;;;;;;;;5033443;28;20410;-83
2023/05/06 08:16:50;;;;;;;4.77;2.50;;;;;;;;;;5031661;28;20793;-83
2023/05/06 08:19:17;;;;;;;3.33;2.80;;;;;;;;;;5033402;28;20413;-83
2023/05/06 08:21:43;;;;;;;3.57;1.53;;;;;;;;;;5032992;28;20905;-83
2023/05/06 08:24:09;;;;;;;3.30;1.90;;;;;;;;;;5032808;28;20548;-83
2023/05/06 08:26:35;;;;;;;4.47;3.03;;;;;;;;;;5032928;28;20423;-83
2023/05/06 08:29:02;;;;;;;5.10;3.07;;;;;;;;;;5033062;28;20424;-84
2023/05/06 08:31:28;;;;;;;2.70;1.60;;;;;;;;;;5033035;28;20577;-83
2023/05/06 08:33:54;;;;;;;4.13;1.93;;;;;;;;;;5049302;28;20455;-83
2023/05/06 08:36:20;;;;;;;5.60;2.47;;;;;;;;;;5034770;28;20430;-83
2023/05/06 08:38:49;;;;;;;9.37;4.30;;;;;;;;;;5034714;28;20444;-83
2023/05/06 08:41:17;;;;;;;8.43;3.20;;;;;;;;;;5042444;28;20520;-82
2023/05/06 08:43:45;;;;;;;7.87;5.37;;;;;;;;;;5021810;28;20419;-83
2023/05/06 08:46:11;;;;;;;6.27;3.90;;;;;;;;;;5038865;28;21014;-86
2023/05/06 08:48:38;;;;;;;5.10;3.00;;;;;;;;;;5010838;28;20505;-82
2023/05/06 08:51:04;;;;;;;8.50;3.13;;;;;;;;;;5022502;28;20474;-83
2023/05/06 08:53:32;;;;;;;6.87;4.20;;;;;;;;;;5014056;28;20953;-81
2023/05/06 08:56:02;;;;;;;5.23;3.23;;;;;;;;;;5031995;28;20426;-85
2023/05/06 08:58:29;;;;;;;5.70;3.30;;;;;;;;;;5032109;28;20763;-84
2023/05/06 09:00:55;;;;;;;6.10;2.93;;;;;;;;;;5026154;28;20479;-86
2023/05/06 09:03:21;;;;;;;6.80;2.27;;;;;;;;;;5030044;28;20449;-81
2023/05/06 09:05:47;;;;;;;3.80;2.47;;;;;;;;;;5032250;28;20819;-82
2023/05/06 09:08:14;;;;;;;3.90;3.03;;;;;;;;;;5031674;28;20428;-84
2023/05/06 09:10:44;;;;;;;5.73;3.00;;;;;;;;;;5035434;28;20454;-83
2023/05/06 09:13:12;;;;;;;6.03;3.33;;;;;;;;;;5036207;28;20423;-83
2023/05/06 09:15:39;;;;;;;5.27;3.70;;;;;;;;;;5018831;28;20951;-84
2023/05/06 09:18:06;;;;;;;3.30;1.80;;;;;;;;;;5036137;28;20424;-83
2023/05/06 09:20:35;;;;;;;4.03;2.20;;;;;;;;;;5018206;28;20436;-82
2023/05/06 09:23:01;;;;;;;5.43;2.50;;;;;;;;;;5017718;28;20465;-83
2023/05/06 09:25:31;;;;;;;7.63;3.83;;;;;;;;;;5036103;28;20426;-82
2023/05/06 09:28:03;;;;;;;5.40;4.30;;;;;;;;;;5036026;28;20412;-83
2023/05/06 09:30:30;;;;;;;4.27;2.63;;;;;;;;;;5036145;28;20456;-83
2023/05/06 09:32:56;;;;;;;4.47;3.43;;;;;;;;;;5035953;28;20544;-83
2023/05/06 09:35:26;;;;;;;5.10;3.00;;;;;;;;;;5035799;28;20398;-83
2023/05/06 09:37:52;;;;;;;4.37;2.40;;;;;;;;;;5035400;28;20460;-83
2023/05/06 09:40:18;;;;;;;3.83;2.63;;;;;;;;;;5036101;28;20435;-83
2023/05/06 09:42:44;;;;;;;5.10;2.73;;;;;;;;;;5018007;28;20267;-82
2023/05/06 09:45:10;;;;;;;6.93;2.63;;;;;;;;;;5035999;28;20178;-82
2023/05/06 09:47:36;;;;;;;6.40;3.43;;;;;;;;;;5035514;28;20432;-84
2023/05/06 09:50:03;;;;;;;8.80;3.03;;;;;;;;;;5035658;28;20431;-83
2023/05/06 09:55:00;;;;;;;5.70;2.90;;;;;;;;;;5015463;28;20465;-85
2023/05/06 09:57:29;;;;;;;6.97;3.33;;;;;;;;;;4998652;28;20416;-85
2023/05/06 09:59:57;;;;;;;8.40;3.50;;;;;;;;;;5016951;28;20414;-86
2023/05/06 10:02:23;;;;;;;4.40;2.80;;;;;;;;;;5016067;28;20740;-85
2023/05/06 10:04:49;;;;;;;8.07;4.00;;;;;;;;;;5015678;28;20419;-86
2023/05/06 10:07:21;;;;;;;5.40;2.83;;;;;;;;;;4998374;28;20827;-84
2023/05/06 10:09:48;;;;;;;6.37;2.83;;;;;;;;;;5016123;28;20433;-83
2023/05/06 10:12:14;;;;;;;3.97;2.80;;;;;;;;;;5015748;28;20486;-85
2023/05/06 10:14:40;;;;;;;5.13;3.27;;;;;;;;;;5015905;28;20930;-86
2023/05/06 10:17:08;;;;;;;5.93;3.20;;;;;;;;;;5015761;28;20452;-85
2023/05/06 10:19:34;;;;;;;6.43;3.30;;;;;;;;;;4997752;28;20810;-83
2023/05/06 10:22:05;;;;;;;4.83;3.30;;;;;;;;;;5015996;28;20445;-84
2023/05/06 10:24:35;;;;;;;6.20;3.60;;;;;;;;;;5011980;28;20417;-82
2023/05/06 10:27:03;;;;;;;6.73;3.10;;;;;;;;;;5036000;28;20405;-83
2023/05/06 10:29:29;;;;;;;4.87;2.40;;;;;;;;;;5017523;28;20451;-85
2023/05/06 10:31:56;;;;;;;5.73;3.57;;;;;;;;;;5017564;28;20475;-86
2023/05/06 10:34:23;;;;;;;5.53;3.50;;;;;;;;;;5014537;28;20843;-87
2023/05/06 10:36:56;;;;;;;6.00;3.07;;;;;;;;;;5011990;28;20796;-86
2023/05/06 10:39:22;;;;;;;6.10;3.73;;;;;;;;;;5000984;28;20426;-93
2023/05/06 10:41:50;;;;;;;5.23;3.17;;;;;;;;;;5009500;28;20419;-90
2023/05/06 10:44:16;;;;;;;7.17;3.67;;;;;;;;;;4998605;28;20789;-91
2023/05/06 10:47:01;;;;;;;6.73;4.77;;;;;;;;;;4984095;28;20505;-94
2023/05/06 10:49:30;;;;;;;7.40;4.50;;;;;;;;;;5001574;28;20418;-91
2023/05/06 10:52:12;;;;;;;6.83;4.97;;;;;;;;;;4999538;28;20473;-92
2023/05/06 10:54:50;;;;;;;10.60;4.80;;;;;;;;;;5010604;28;20585;-85
2023/05/06 10:57:19;;;;;;;9.80;3.60;;;;;;;;;;4990588;28;20416;-91
2023/05/06 11:00:09;;;;;;;4.93;2.87;;;;;;;;;;4992986;28;20429;-94
2023/05/06 11:02:35;;;;;;;8.20;3.40;;;;;;;;;;5018463;28;20418;-91
2023/05/06 11:05:01;;;;;;;5.53;3.73;;;;;;;;;;5017130;28;20457;-87
2023/05/06 11:07:27;;;;;;;5.43;2.77;;;;;;;;;;5015495;28;20425;-85
2023/05/06 11:09:54;;;;;;;5.80;4.60;;;;;;;;;;5015062;28;20410;-85
2023/05/06 11:12:20;;;;;;;9.27;3.63;;;;;;;;;;4997143;28;20487;-85
2023/05/06 11:14:46;;;;;;;5.73;2.93;;;;;;;;;;5014657;28;20416;-86
2023/05/06 11:17:32;;;;;;;5.77;4.03;;;;;;;;;;5014565;28;20478;-85
2023/05/06 11:20:16;;;;;;;6.40;3.30;;;;;;;;;;5013741;28;20411;-84
2023/05/06 11:22:42;;;;;;;7.60;3.90;;;;;;;;;;5008403;28;20433;-85
2023/05/06 11:25:08;;;;;;;7.07;4.00;;;;;;;;;;5011809;28;20425;-85
2023/05/06 11:27:35;;;;;;;5.03;3.03;;;;;;;;;;4996253;28;20421;-85
2023/05/06 11:30:01;;;;;;;5.60;3.60;;;;;;;;;;5013632;28;20519;-86
2023/05/06 11:32:27;;;;;;;7.83;3.33;;;;;;;;;;4995597;28;20891;-83
2023/05/06 11:34:56;;;;;;;5.20;3.10;;;;;;;;;;5013264;28;20918;-85
2023/05/06 11:37:26;;;;;;;7.23;4.57;;;;;;;;;;4996115;28;20418;-85
2023/05/06 11:39:52;;;;;;;4.10;2.67;;;;;;;;;;4995498;28;20819;-86
2023/05/06 11:42:25;;;;;;;6.00;3.80;;;;;;;;;;5010536;28;20425;-85
2023/05/06 11:44:53;;;;;;;7.70;3.80;;;;;;;;;;5013785;28;20770;-85
2023/05/06 11:47:21;;;;;;;4.10;2.90;;;;;;;;;;5013312;28;20446;-85
2023/05/06 11:49:50;;;;;;;7.20;3.77;;;;;;;;;;4995436;28;20422;-85
2023/05/06 11:52:18;;;;;;;6.37;3.13;;;;;;;;;;5013021;28;20476;-85
2023/05/06 11:54:44;;;;;;;5.20;3.00;;;;;;;;;;5012929;28;20556;-86
2023/05/06 11:57:10;;;;;;;3.63;2.60;;;;;;;;;;4995798;28;20525;-86
2023/05/06 11:59:37;;;;;;;6.37;3.53;;;;;;;;;;5013873;28;20414;-85
2023/05/06 12:02:04;;;;;;;5.10;3.00;;;;;;;;;;4995700;28;20433;-86
2023/05/06 12:04:41;;;;;;;5.50;3.50;;;;;;;;;;5013857;28;20444;-86
2023/05/06 12:07:08;;;;;;;6.70;4.00;;;;;;;;;;4995874;28;20448;-85
2023/05/06 12:09:34;;;;;;;5.50;3.67;;;;;;;;;;5009373;28;20427;-88
2023/05/06 12:12:01;;;;;;;4.37;2.47;;;;;;;;;;4989146;28;20469;-87
2023/05/06 12:14:27;;;;;;;5.27;3.30;;;;;;;;;;4976229;28;20497;-86
2023/05/06 12:16:53;;;;;;;4.90;3.37;;;;;;;;;;4992934;28;20427;-85
2023/05/06 12:19:20;;;;;;;5.40;3.17;;;;;;;;;;4993212;28;20418;-85
2023/05/06 12:21:46;;;;;;;5.33;3.33;;;;;;;;;;4993111;28;20895;-85
2023/05/06 12:24:12;;;;;;;5.27;2.80;;;;;;;;;;4975753;28;20511;-86
2023/05/06 12:26:48;;;;;;;3.70;1.97;;;;;;;;;;4975963;28;20419;-85
2023/05/06 12:29:18;;;;;;;4.90;2.77;;;;;;;;;;4993188;28;20421;-86
2023/05/06 12:31:48;;;;;;;9.90;4.87;;;;;;;;;;4992824;28;20987;-85
2023/05/06 12:34:15;;;;;;;6.90;2.70;;;;;;;;;;4976079;28;20792;-86
2023/05/06 12:36:45;;;;;;;5.53;4.57;;;;;;;;;;4993407;28;20443;-86
2023/05/06 12:39:11;;;;;;;5.20;3.90;;;;;;;;;;4993780;28;20800;-86
2023/05/06 12:41:42;;;;;;;6.43;3.10;;;;;;;;;;4976158;28;20434;-85
2023/05/06 12:44:26;;;;;;;6.57;2.63;;;;;;;;;;4993429;28;20446;-87
2023/05/06 12:46:52;;;;;;;6.13;3.63;;;;;;;;;;4993182;28;20453;-87
2023/05/06 12:49:18;;;;;;;4.37;2.80;;;;;;;;;;4976112;28;20464;-87
2023/05/06 12:51:44;;;;;;;4.13;2.97;;;;;;;;;;4976142;28;20507;-85
2023/05/06 12:54:29;;;;;;;4.87;3.03;;;;;;;;;;4993328;28;20473;-85
2023/05/06 12:56:55;;;;;;;6.33;3.53;;;;;;;;;;4993483;28;20446;-86
2023/05/06 12:59:24;;;;;;;6.40;2.57;;;;;;;;;;4993476;28;20504;-87
2023/05/06 13:01:50;;;;;;;5.57;2.67;;;;;;;;;;4993113;28;20429;-86
2023/05/06 13:04:16;;;;;;;7.57;3.20;;;;;;;;;;4993561;28;20427;-85
2023/05/06 13:06:42;;;;;;;3.57;2.83;;;;;;;;;;4975690;28;20422;-86
2023/05/06 13:09:08;;;;;;;5.03;2.80;;;;;;;;;;4975935;28;20998;-86
2023/05/06 13:11:36;;;;;;;5.73;2.47;;;;;;;;;;4993338;28;20481;-85
2023/05/06 13:14:02;;;;;;;3.30;2.17;;;;;;;;;;4993391;28;20413;-87
2023/05/06 13:16:31;;;;;;;4.80;3.20;;;;;;;;;;4975587;28;20484;-86
2023/05/06 13:18:57;;;;;;;5.33;3.40;;;;;;;;;;4993368;28;20730;-86
2023/05/06 13:21:23;;;;;;;7.40;3.90;;;;;;;;;;4992986;28;20429;-86
2023/05/06 13:23:49;;;;;;;5.20;3.37;;;;;;;;;;4975858;28;20438;-83
2023/05/06 13:26:16;;;;;;;6.53;2.67;;;;;;;;;;4993238;28;20947;-85
2023/05/06 13:28:42;;;;;;;3.50;3.00;;;;;;;;;;4992890;28;20465;-86
2023/05/06 13:31:08;;;;;;;4.10;2.50;;;;;;;;;;4993561;28;20534;-87
2023/05/06 13:33:34;;;;;;;5.57;2.90;;;;;;;;;;4975689;28;20447;-85
2023/05/06 13:36:00;;;;;;;3.60;3.17;;;;;;;;;;4975340;28;20427;-87
2023/05/06 13:38:26;;;;;;;4.97;1.80;;;;;;;;;;4975788;28;20430;-86
2023/05/06 13:40:53;;;;;;;6.00;2.87;;;;;;;;;;4993257;28;20893;-86
2023/05/06 13:43:19;;;;;;;4.17;2.73;;;;;;;;;;4992587;28;20915;-86
2023/05/06 13:45:45;;;;;;;6.00;2.97;;;;;;;;;;4993409;28;20411;-86
2023/05/06 13:48:11;;;;;;;3.90;1.93;;;;;;;;;;4975901;28;20777;-86
2023/05/06 13:50:37;;;;;;;5.60;3.07;;;;;;;;;;4992649;28;20457;-86
2023/05/06 13:53:04;;;;;;;4.80;2.50;;;;;;;;;;4975236;28;20897;-86
2023/05/06 13:55:30;;;;;;;5.90;3.07;;;;;;;;;;4993210;28;20408;-86
2023/05/06 13:57:56;;;;;;;4.47;2.33;;;;;;;;;;4995727;28;20431;-86
2023/05/06 14:00:22;;;;;;;6.97;3.53;;;;;;;;;;4979123;28;20407;-85
2023/05/06 14:02:48;;;;;;;4.40;3.53;;;;;;;;;;4979105;28;20431;-86
2023/05/06 14:05:14;;;;;;;5.50;2.80;;;;;;;;;;4978962;28;20524;-86
2023/05/06 14:07:40;;;;;;;3.93;2.00;;;;;;;;;;4979375;28;20433;-87
2023/05/06 14:10:06;;;;;;;7.63;3.50;;;;;;;;;;4978971;28;21027;-86
2023/05/06 14:12:32;;;;;;;3.40;2.57;;;;;;;;;;4995838;28;20523;-86
2023/05/06 14:14:58;;;;;;;4.17;2.57;;;;;;;;;;4996432;28;20497;-87
2023/05/06 14:17:27;;;;;;;3.13;2.07;;;;;;;;;;4996291;28;20837;-86
2023/05/06 14:19:53;;;;;;;4.53;3.17;;;;;;;;;;5009373;28;20479;-85
2023/05/06 14:22:19;;;;;;;4.43;2.30;;;;;;;;;;4997707;28;20508;-86
2023/05/06 14:24:45;;;;;;;4.70;2.33;;;;;;;;;;5014398;28;20565;-86
2023/05/06 14:27:10;;;;;;;6.00;3.63;;;;;;;;;;5014943;28;20171;-85
2023/05/06 14:29:36;;;;;;;7.27;4.07;;;;;;;;;;5015563;28;20410;-85
2023/05/06 14:32:02;;;;;;;4.17;2.37;;;;;;;;;;5015319;28;20207;-85
2023/05/06 14:34:28;;;;;;;3.13;2.30;;;;;;;;;;5010538;28;20551;-85
2023/05/06 14:36:57;;;;;;;5.87;3.63;;;;;;;;;;5014338;28;20437;-85
2023/05/06 14:39:23;;;;;;;7.00;2.90;;;;;;;;;;5014068;28;20179;-85
2023/05/06 14:41:49;;;;;;;3.30;3.00;;;;;;;;;;5013855;28;20409;-85
2023/05/06 14:44:15;;;;;;;4.27;2.20;;;;;;;;;;5015078;28;20423;-84